createdAt,value
2023-05-22T00:00:16.754Z,98.40
2023-05-22T00:02:44.083Z,98.56
2023-05-22T00:05:16.312Z,98.38
2023-05-22T00:07:43.642Z,98.46
2023-05-22T00:10:10.937Z,98.63
2023-05-22T00:12:37.848Z,98.95
2023-05-22T00:15:05.152Z,99.16
2023-05-22T00:17:32.121Z,99.15
2023-05-22T00:20:08.301Z,99.02
2023-05-22T00:22:35.782Z,99.28
2023-05-22T00:25:06.655Z,99.35
2023-05-22T00:27:34.276Z,99.57
2023-05-22T00:30:01.448Z,99.09
2023-05-22T00:32:28.564Z,98.91
2023-05-22T00:34:55.557Z,99.52
2023-05-22T00:37:22.301Z,99.49
2023-05-22T00:39:49.421Z,99.71
2023-05-22T00:42:16.155Z,100.00
2023-05-22T00:44:42.989Z,100.00
2023-05-22T00:47:09.843Z,99.70
2023-05-22T00:49:36.853Z,99.59
2023-05-22T00:52:03.883Z,99.45
2023-05-22T00:54:31.711Z,99.51
2023-05-22T00:56:58.581Z,99.28
2023-05-22T00:59:25.478Z,99.43
2023-05-22T01:01:52.259Z,99.73
2023-05-22T01:04:19.210Z,100.00
2023-05-22T01:06:47.896Z,100.00
2023-05-22T01:09:15.120Z,100.00
2023-05-22T01:12:19.567Z,100.00
2023-05-22T01:15:04.467Z,100.00
2023-05-22T01:17:46.530Z,100.00
2023-05-22T01:20:26.043Z,100.00
2023-05-22T01:23:24.670Z,100.00
2023-05-22T01:25:58.080Z,100.00
2023-05-22T01:28:38.801Z,100.00
2023-05-22T01:31:08.420Z,100.00
2023-05-22T01:33:53.716Z,100.00
2023-05-22T01:36:26.328Z,100.00
2023-05-22T01:38:54.106Z,100.00
2023-05-22T01:41:21.749Z,100.00
2023-05-22T01:43:48.595Z,100.00
2023-05-22T01:46:15.619Z,100.00
2023-05-22T01:48:42.466Z,100.00
2023-05-22T01:51:21.431Z,100.00
2023-05-22T01:53:54.655Z,100.00
2023-05-22T01:56:31.036Z,100.00
2023-05-22T01:59:34.628Z,100.00
2023-05-22T02:02:05.763Z,100.00
2023-05-22T02:04:33.140Z,99.98
2023-05-22T02:07:01.383Z,99.46
2023-05-22T02:09:30.315Z,99.28
2023-05-22T02:11:59.007Z,99.49
2023-05-22T02:14:26.650Z,98.75
2023-05-22T02:16:53.688Z,98.40
2023-05-22T02:19:20.534Z,98.52
2023-05-22T02:21:47.299Z,97.87
2023-05-22T02:24:14.040Z,98.15
2023-05-22T02:26:40.809Z,97.94
2023-05-22T02:29:07.541Z,98.12
2023-05-22T02:31:34.416Z,98.28
2023-05-22T02:34:01.364Z,98.18
2023-05-22T02:36:28.153Z,99.14
2023-05-22T02:38:55.757Z,99.67
2023-05-22T02:41:22.906Z,100.00
2023-05-22T02:43:49.772Z,100.00
2023-05-22T02:46:16.515Z,100.00
2023-05-22T02:48:43.350Z,100.00
2023-05-22T02:51:10.100Z,100.00
2023-05-22T02:53:40.367Z,100.00
2023-05-22T02:56:12.189Z,100.00
2023-05-22T02:58:39.752Z,100.00
2023-05-22T03:01:06.895Z,100.00
2023-05-22T03:03:34.313Z,100.00
2023-05-22T03:06:02.017Z,100.00
2023-05-22T03:08:29.327Z,100.00
2023-05-22T03:10:57.362Z,100.00
2023-05-22T03:13:24.361Z,100.00
2023-05-22T03:15:51.500Z,100.00
2023-05-22T03:18:18.339Z,100.00
2023-05-22T03:20:45.058Z,100.00
2023-05-22T03:23:12.814Z,100.00
2023-05-22T03:25:39.742Z,100.00
2023-05-22T03:28:06.704Z,100.00
2023-05-22T03:30:33.886Z,100.00
2023-05-22T03:33:00.847Z,100.00
2023-05-22T03:35:27.593Z,100.00
2023-05-22T03:37:54.421Z,100.00
2023-05-22T03:40:21.259Z,100.00
2023-05-22T03:42:49.594Z,100.00
2023-05-22T03:45:16.575Z,100.00
2023-05-22T03:47:43.353Z,100.00
2023-05-22T03:50:10.625Z,100.00
2023-05-22T03:52:37.399Z,100.00
2023-05-22T03:55:04.628Z,100.00
2023-05-22T03:57:31.331Z,100.00
2023-05-22T04:00:03.040Z,100.00
2023-05-22T04:02:30.424Z,100.00
2023-05-22T04:04:57.440Z,100.00
2023-05-22T04:07:24.217Z,100.00
2023-05-22T04:09:51.039Z,100.00
2023-05-22T04:12:17.798Z,100.00
2023-05-22T04:14:44.549Z,100.00
2023-05-22T04:17:12.100Z,100.00
2023-05-22T04:19:38.803Z,100.00
2023-05-22T04:22:05.979Z,100.00
2023-05-22T04:24:33.219Z,100.00
2023-05-22T04:27:00.541Z,100.00
2023-05-22T04:29:28.755Z,100.00
2023-05-22T04:31:55.747Z,100.00
2023-05-22T04:34:22.562Z,100.00
2023-05-22T04:36:49.443Z,100.00
2023-05-22T04:39:16.288Z,100.00
2023-05-22T04:41:43.119Z,100.00
2023-05-22T04:44:09.921Z,100.00
2023-05-22T04:46:36.688Z,100.00
2023-05-22T04:49:03.604Z,100.00
2023-05-22T04:51:31.460Z,100.00
2023-05-22T04:53:58.766Z,100.00
2023-05-22T04:56:35.326Z,100.00
2023-05-22T04:59:04.940Z,100.00
2023-05-22T05:01:33.312Z,100.00
2023-05-22T05:04:00.934Z,100.00
2023-05-22T05:06:27.915Z,100.00
2023-05-22T05:08:55.157Z,100.00
2023-05-22T05:11:21.884Z,100.00
2023-05-22T05:13:48.636Z,100.00
2023-05-22T05:16:15.355Z,100.00
2023-05-22T05:18:42.097Z,100.00
2023-05-22T05:21:09.241Z,100.00
2023-05-22T05:23:36.493Z,100.00
2023-05-22T05:26:03.327Z,100.00
2023-05-22T05:28:30.090Z,100.00
2023-05-22T05:30:58.116Z,100.00
2023-05-22T05:33:24.977Z,100.00
2023-05-22T05:35:52.917Z,100.00
2023-05-22T05:38:19.644Z,100.00
2023-05-22T05:40:47.162Z,100.00
2023-05-22T05:43:15.430Z,100.00
2023-05-22T05:45:43.036Z,100.00
2023-05-22T05:48:10.091Z,100.00
2023-05-22T05:50:37.186Z,100.00
2023-05-22T05:53:04.177Z,100.00
2023-05-22T05:55:33.281Z,100.00
2023-05-22T05:58:01.168Z,100.00
2023-05-22T06:00:28.081Z,100.00
2023-05-22T06:02:55.334Z,100.00
2023-05-22T06:05:22.699Z,100.00
2023-05-22T06:07:49.921Z,100.00
2023-05-22T06:10:16.790Z,100.00
2023-05-22T06:12:43.673Z,100.00
2023-05-22T06:15:11.231Z,100.00
2023-05-22T06:17:38.030Z,100.00
2023-05-22T06:20:07.628Z,100.00
2023-05-22T06:22:34.388Z,100.00
2023-05-22T06:25:01.527Z,100.00
2023-05-22T06:27:28.345Z,100.00
2023-05-22T06:29:56.412Z,100.00
2023-05-22T06:32:23.444Z,100.00
2023-05-22T06:34:50.267Z,100.00
2023-05-22T06:37:17.152Z,100.00
2023-05-22T06:39:43.929Z,100.00
2023-05-22T06:42:10.752Z,100.00
2023-05-22T06:44:37.551Z,100.00
2023-05-22T06:47:04.527Z,100.00
2023-05-22T06:49:31.303Z,100.00
2023-05-22T06:51:58.041Z,100.00
2023-05-22T06:54:28.697Z,100.00
2023-05-22T06:56:56.636Z,100.00
2023-05-22T06:59:23.431Z,100.00
2023-05-22T07:01:50.353Z,100.00
2023-05-22T07:04:17.492Z,100.00
2023-05-22T07:06:45.900Z,100.00
2023-05-22T07:09:14.165Z,100.00
2023-05-22T07:11:44.032Z,100.00
2023-05-22T07:14:12.811Z,100.00
2023-05-22T07:16:40.630Z,100.00
2023-05-22T07:19:09.087Z,100.00
2023-05-22T07:21:36.444Z,100.00
2023-05-22T07:24:08.378Z,100.00
2023-05-22T07:26:36.357Z,100.00
2023-05-22T07:29:04.008Z,100.00
2023-05-22T07:31:34.815Z,100.00
2023-05-22T07:34:01.736Z,100.00
2023-05-22T07:36:28.477Z,100.00
2023-05-22T07:38:55.318Z,100.00
2023-05-22T07:41:22.929Z,100.00
2023-05-22T07:43:49.977Z,100.00
2023-05-22T07:46:16.899Z,100.00
2023-05-22T07:48:44.061Z,100.00
2023-05-22T07:51:10.879Z,100.00
2023-05-22T07:53:37.748Z,100.00
2023-05-22T07:56:04.603Z,100.00
2023-05-22T07:58:31.620Z,100.00
2023-05-22T08:00:58.614Z,100.00
2023-05-22T08:03:25.501Z,100.00
2023-05-22T08:05:52.557Z,100.00
2023-05-22T08:08:19.314Z,100.00
2023-05-22T08:11:01.735Z,100.00
2023-05-22T08:13:29.722Z,100.00
2023-05-22T08:16:00.357Z,100.00
2023-05-22T08:18:29.632Z,100.00
2023-05-22T08:20:56.860Z,100.00
2023-05-22T08:23:23.677Z,100.00
2023-05-22T08:25:50.551Z,100.00
2023-05-22T08:28:17.382Z,100.00
2023-05-22T08:30:44.304Z,100.00
2023-05-22T08:33:12.514Z,100.00
2023-05-22T08:35:39.437Z,100.00
2023-05-22T08:38:06.272Z,100.00
2023-05-22T08:40:41.308Z,100.00
2023-05-22T08:43:09.597Z,100.00
2023-05-22T08:45:36.441Z,100.00
2023-05-22T08:48:06.454Z,100.00
2023-05-22T08:50:34.963Z,100.00
2023-05-22T08:53:07.107Z,100.00
2023-05-22T08:55:34.683Z,100.00
2023-05-22T08:58:01.589Z,100.00
2023-05-22T09:00:29.887Z,100.00
2023-05-22T09:02:57.862Z,100.00
2023-05-22T09:05:27.003Z,100.00
2023-05-22T09:07:56.545Z,100.00
2023-05-22T09:10:25.854Z,100.00
2023-05-22T09:13:04.757Z,100.00
2023-05-22T09:15:32.639Z,100.00
2023-05-22T09:18:00.215Z,100.00
2023-05-22T09:20:27.225Z,100.00
2023-05-22T09:22:54.098Z,100.00
2023-05-22T09:25:21.822Z,100.00
2023-05-22T09:27:49.047Z,100.00
2023-05-22T09:30:19.847Z,100.00
2023-05-22T09:32:48.938Z,100.00
2023-05-22T09:35:16.788Z,100.00
2023-05-22T09:37:43.552Z,100.00
2023-05-22T09:40:14.458Z,100.00
2023-05-22T09:42:45.025Z,100.00
2023-05-22T09:45:11.919Z,100.00
2023-05-22T09:47:39.178Z,100.00
2023-05-22T09:50:07.639Z,100.00
2023-05-22T09:52:35.923Z,100.00
2023-05-22T09:55:07.379Z,100.00
2023-05-22T09:57:45.660Z,100.00
2023-05-22T10:00:16.272Z,100.00
2023-05-22T10:02:48.256Z,100.00
2023-05-22T10:05:24.513Z,100.00
2023-05-22T10:07:54.756Z,100.00
2023-05-22T10:10:23.474Z,100.00
2023-05-22T10:13:04.790Z,100.00
2023-05-22T10:15:32.375Z,100.00
2023-05-22T10:17:59.630Z,99.66
2023-05-22T10:20:27.975Z,98.89
2023-05-22T10:22:55.395Z,98.64
2023-05-22T10:25:22.561Z,98.10
2023-05-22T10:27:52.692Z,97.08
2023-05-22T10:30:22.472Z,96.53
2023-05-22T10:33:06.102Z,95.55
2023-05-22T10:35:40.238Z,94.65
2023-05-22T10:38:28.289Z,93.19
2023-05-22T10:40:55.465Z,92.26
2023-05-22T10:43:22.965Z,92.01
2023-05-22T10:45:49.823Z,91.52
2023-05-22T10:48:21.855Z,91.19
2023-05-22T10:50:53.191Z,89.94
2023-05-22T10:53:32.582Z,89.83
2023-05-22T10:56:02.905Z,89.75
2023-05-22T10:58:37.512Z,89.78
2023-05-22T11:01:17.494Z,88.90
2023-05-22T11:04:16.218Z,88.58
2023-05-22T11:07:15.707Z,87.81
2023-05-22T11:09:43.545Z,87.29
2023-05-22T11:12:16.783Z,87.57
2023-05-22T11:14:47.933Z,87.66
2023-05-22T11:17:18.975Z,87.48
2023-05-22T11:19:49.876Z,87.21
2023-05-22T11:22:17.982Z,87.15
2023-05-22T11:24:44.985Z,87.58
2023-05-22T11:27:11.798Z,87.74
2023-05-22T11:29:41.829Z,87.52
2023-05-22T11:32:09.401Z,86.81
2023-05-22T11:34:37.270Z,87.10
2023-05-22T11:37:04.127Z,86.88
2023-05-22T11:39:32.926Z,87.28
2023-05-22T11:41:59.702Z,86.88
2023-05-22T11:44:27.998Z,86.25
2023-05-22T11:46:54.878Z,86.07
2023-05-22T11:49:25.700Z,86.36
2023-05-22T11:51:52.589Z,85.82
2023-05-22T11:54:19.614Z,85.92
2023-05-22T11:56:46.741Z,86.22
2023-05-22T11:59:13.574Z,86.20
2023-05-22T12:01:40.401Z,86.06
2023-05-22T12:04:07.286Z,86.43
2023-05-22T12:06:34.361Z,86.28
2023-05-22T12:09:01.728Z,85.88
2023-05-22T12:11:28.617Z,85.84
2023-05-22T12:14:02.770Z,85.58
2023-05-22T12:16:34.657Z,85.66
2023-05-22T12:19:05.992Z,85.34
2023-05-22T12:21:32.926Z,85.32
2023-05-22T12:24:04.176Z,84.46
2023-05-22T12:26:31.800Z,84.25
2023-05-22T12:28:59.505Z,84.05
2023-05-22T12:31:26.652Z,83.81
2023-05-22T12:33:57.094Z,83.20
2023-05-22T12:36:39.957Z,82.31
2023-05-22T12:39:11.273Z,82.64
2023-05-22T12:41:41.240Z,82.45
2023-05-22T12:44:08.362Z,82.26
2023-05-22T12:46:35.320Z,81.91
2023-05-22T12:49:02.467Z,81.16
2023-05-22T12:51:31.387Z,80.73
2023-05-22T12:53:59.283Z,80.61
2023-05-22T12:56:26.303Z,80.37
2023-05-22T12:58:53.236Z,79.81
2023-05-22T13:01:20.257Z,79.44
2023-05-22T13:03:47.053Z,79.40
2023-05-22T13:06:13.955Z,77.96
2023-05-22T13:08:40.700Z,77.92
2023-05-22T13:11:07.439Z,77.52
2023-05-22T13:13:34.235Z,77.04
2023-05-22T13:16:01.211Z,76.78
2023-05-22T13:18:27.995Z,76.50
2023-05-22T13:20:56.592Z,76.44
2023-05-22T13:23:23.651Z,76.03
2023-05-22T13:25:50.553Z,76.04
2023-05-22T13:28:17.333Z,75.66
2023-05-22T13:30:44.088Z,75.52
2023-05-22T13:33:15.900Z,75.56
2023-05-22T13:35:45.565Z,74.91
2023-05-22T13:38:12.427Z,74.73
2023-05-22T13:40:39.554Z,74.35
2023-05-22T13:43:06.387Z,72.73
2023-05-22T13:45:33.344Z,72.11
2023-05-22T13:48:00.258Z,71.30
2023-05-22T13:50:27.085Z,70.83
2023-05-22T13:52:53.943Z,71.29
2023-05-22T13:55:21.194Z,70.44
2023-05-22T13:57:47.936Z,70.71
2023-05-22T14:00:15.261Z,70.13
2023-05-22T14:02:42.110Z,70.09
2023-05-22T14:05:09.160Z,70.21
2023-05-22T14:07:36.001Z,70.45
2023-05-22T14:10:02.824Z,70.72
2023-05-22T14:12:29.746Z,70.77
2023-05-22T14:14:56.588Z,70.83
2023-05-22T14:17:23.354Z,70.78
2023-05-22T14:19:50.112Z,70.27
2023-05-22T14:22:17.012Z,70.34
2023-05-22T14:24:43.797Z,70.41
2023-05-22T14:27:10.526Z,71.54
2023-05-22T14:29:37.294Z,70.62
2023-05-22T14:32:05.402Z,70.46
2023-05-22T14:34:32.370Z,71.13
2023-05-22T14:36:59.193Z,70.67
2023-05-22T14:39:26.276Z,70.64
2023-05-22T14:41:54.018Z,70.90
2023-05-22T14:44:22.780Z,70.72
2023-05-22T14:46:51.186Z,71.19
2023-05-22T14:49:18.187Z,70.85
2023-05-22T14:51:48.274Z,71.00
2023-05-22T14:54:19.297Z,71.03
2023-05-22T14:56:46.559Z,70.64
2023-05-22T14:59:14.375Z,69.36
2023-05-22T15:01:41.327Z,69.17
2023-05-22T15:04:09.197Z,69.26
2023-05-22T15:06:36.454Z,68.93
2023-05-22T15:09:03.434Z,69.56
2023-05-22T15:11:30.233Z,69.59
2023-05-22T15:13:57.011Z,68.96
2023-05-22T15:16:25.827Z,68.89
2023-05-22T15:18:53.680Z,68.63
2023-05-22T15:21:21.151Z,68.13
2023-05-22T15:23:48.424Z,67.83
2023-05-22T15:26:16.337Z,68.42
2023-05-22T15:28:43.149Z,68.04
2023-05-22T15:31:12.187Z,68.95
2023-05-22T15:33:39.891Z,69.21
2023-05-22T15:36:06.993Z,68.99
2023-05-22T15:38:34.008Z,68.84
2023-05-22T15:41:10.633Z,68.63
2023-05-22T15:43:42.923Z,68.20
2023-05-22T15:46:12.660Z,68.11
2023-05-22T15:48:42.556Z,68.06
2023-05-22T15:51:09.934Z,67.86
2023-05-22T15:53:36.984Z,67.93
2023-05-22T15:56:04.125Z,67.94
2023-05-22T15:58:31.224Z,68.03
2023-05-22T16:00:58.252Z,67.33
2023-05-22T16:03:25.869Z,67.41
2023-05-22T16:05:55.326Z,66.17
2023-05-22T16:08:22.494Z,65.38
2023-05-22T16:10:49.502Z,65.69
2023-05-22T16:13:20.728Z,65.53
2023-05-22T16:16:06.513Z,65.36
2023-05-22T16:18:33.910Z,65.75
2023-05-22T16:21:09.146Z,66.43
2023-05-22T16:23:38.177Z,66.24
2023-05-22T16:26:06.824Z,66.78
2023-05-22T16:28:39.176Z,66.60
2023-05-22T16:31:08.176Z,67.12
2023-05-22T16:33:36.553Z,68.55
2023-05-22T16:36:04.194Z,70.32
2023-05-22T16:38:30.936Z,70.26
2023-05-22T16:40:58.317Z,70.72
2023-05-22T16:43:25.145Z,72.97
2023-05-22T16:45:51.956Z,75.49
2023-05-22T16:48:18.817Z,77.56
2023-05-22T16:50:46.886Z,79.46
2023-05-22T16:53:14.004Z,80.96
2023-05-22T16:55:41.065Z,82.45
2023-05-22T16:58:09.351Z,82.48
2023-05-22T17:00:36.664Z,83.29
2023-05-22T17:03:04.030Z,83.79
2023-05-22T17:05:31.018Z,84.39
2023-05-22T17:07:57.810Z,84.75
2023-05-22T17:10:26.875Z,85.47
2023-05-22T17:12:56.764Z,86.15
2023-05-22T17:15:26.076Z,87.15
2023-05-22T17:17:52.929Z,87.75
2023-05-22T17:20:22.319Z,87.81
2023-05-22T17:22:49.369Z,87.87
2023-05-22T17:25:16.498Z,87.57
2023-05-22T17:27:50.321Z,88.75
2023-05-22T17:30:17.528Z,89.14
2023-05-22T17:32:45.378Z,89.40
2023-05-22T17:35:12.289Z,90.48
2023-05-22T17:37:39.085Z,90.59
2023-05-22T17:40:06.784Z,91.05
2023-05-22T17:42:33.553Z,91.62
2023-05-22T17:45:00.329Z,91.84
2023-05-22T17:47:27.126Z,92.12
2023-05-22T17:49:54.033Z,92.41
2023-05-22T17:52:20.861Z,93.00
2023-05-22T17:54:47.599Z,93.30
2023-05-22T17:57:14.466Z,93.23
2023-05-22T17:59:41.235Z,93.42
2023-05-22T18:02:09.298Z,93.21
2023-05-22T18:04:36.636Z,93.79
2023-05-22T18:07:04.075Z,93.58
2023-05-22T18:09:31.136Z,92.83
2023-05-22T18:11:59.120Z,93.29
2023-05-22T18:14:26.271Z,92.98
2023-05-22T18:17:00.373Z,93.10
2023-05-22T18:19:27.375Z,92.45
2023-05-22T18:21:54.303Z,93.44
2023-05-22T18:24:25.197Z,93.56
2023-05-22T18:26:52.219Z,93.69
2023-05-22T18:29:19.203Z,93.95
2023-05-22T18:31:46.506Z,93.69
2023-05-22T18:34:13.922Z,93.76
2023-05-22T18:36:44.135Z,93.72
2023-05-22T18:39:11.647Z,94.40
2023-05-22T18:41:39.013Z,94.08
2023-05-22T18:44:05.866Z,94.03
2023-05-22T18:46:32.822Z,93.53
2023-05-22T18:48:59.814Z,93.63
2023-05-22T18:51:26.924Z,94.30
2023-05-22T18:53:53.953Z,94.04
2023-05-22T18:56:20.727Z,94.16
2023-05-22T18:58:47.572Z,94.47
2023-05-22T19:01:14.377Z,93.21
2023-05-22T19:03:41.401Z,92.48
2023-05-22T19:06:08.473Z,91.42
2023-05-22T19:08:35.522Z,90.23
2023-05-22T19:11:02.400Z,89.61
2023-05-22T19:13:29.595Z,88.95
2023-05-22T19:15:57.518Z,87.08
2023-05-22T19:18:24.877Z,85.22
2023-05-22T19:20:51.695Z,83.20
2023-05-22T19:23:18.870Z,82.28
2023-05-22T19:25:46.058Z,81.33
2023-05-22T19:28:12.780Z,81.46
2023-05-22T19:30:40.022Z,80.73
2023-05-22T19:33:08.975Z,79.61
2023-05-22T19:35:36.027Z,78.54
2023-05-22T19:38:02.726Z,77.39
2023-05-22T19:40:29.512Z,76.87
2023-05-22T19:42:56.494Z,76.21
2023-05-22T19:45:26.110Z,76.02
2023-05-22T19:47:53.092Z,76.19
2023-05-22T19:50:19.929Z,75.69
2023-05-22T19:52:46.718Z,75.76
2023-05-22T19:55:13.479Z,75.23
2023-05-22T19:57:40.741Z,74.83
2023-05-22T20:00:11.165Z,75.32
2023-05-22T20:02:38.661Z,75.38
2023-05-22T20:05:09.807Z,75.30
2023-05-22T20:07:36.696Z,75.56
2023-05-22T20:10:06.946Z,75.89
2023-05-22T20:12:34.145Z,75.81
2023-05-22T20:15:02.933Z,75.71
2023-05-22T20:17:30.384Z,76.31
2023-05-22T20:20:00.764Z,76.27
2023-05-22T20:22:28.136Z,75.79
2023-05-22T20:24:54.916Z,75.94
2023-05-22T20:27:21.738Z,75.89
2023-05-22T20:29:51.432Z,76.25
2023-05-22T20:32:18.403Z,76.53
2023-05-22T20:34:46.732Z,75.87
2023-05-22T20:37:13.844Z,76.42
2023-05-22T20:39:43.765Z,77.01
2023-05-22T20:42:11.880Z,77.00
2023-05-22T20:44:39.429Z,77.11
2023-05-22T20:47:06.624Z,77.76
2023-05-22T20:49:34.983Z,77.54
2023-05-22T20:52:03.050Z,77.48
2023-05-22T20:54:34.751Z,78.30
2023-05-22T20:57:02.151Z,78.40
2023-05-22T20:59:29.310Z,78.71
2023-05-22T21:01:57.355Z,78.97
2023-05-22T21:04:24.718Z,79.08
2023-05-22T21:06:51.587Z,79.48
2023-05-22T21:09:18.458Z,80.22
2023-05-22T21:11:45.454Z,80.15
2023-05-22T21:14:12.336Z,80.15
2023-05-22T21:16:40.335Z,80.99
2023-05-22T21:19:07.697Z,81.47
2023-05-22T21:21:36.403Z,81.56
2023-05-22T21:24:03.585Z,81.07
2023-05-22T21:26:30.572Z,81.95
2023-05-22T21:28:57.592Z,81.41
2023-05-22T21:31:24.429Z,81.46
2023-05-22T21:33:51.865Z,81.71
2023-05-22T21:36:18.781Z,81.61
2023-05-22T21:38:45.970Z,81.52
2023-05-22T21:41:13.254Z,81.61
2023-05-22T21:43:40.001Z,81.89
2023-05-22T21:46:06.950Z,81.83
2023-05-22T21:48:34.619Z,82.31
2023-05-22T21:51:01.465Z,82.30
2023-05-22T21:53:28.210Z,82.27
2023-05-22T21:55:55.050Z,82.44
2023-05-22T21:58:22.121Z,82.62
2023-05-22T22:00:48.850Z,82.53
2023-05-22T22:03:16.165Z,82.76
2023-05-22T22:05:42.998Z,82.60
2023-05-22T22:08:09.983Z,82.74
2023-05-22T22:10:36.747Z,83.08
2023-05-22T22:13:03.580Z,83.09
2023-05-22T22:15:31.806Z,83.89
2023-05-22T22:18:02.394Z,84.07
2023-05-22T22:20:44.124Z,84.39
2023-05-22T22:23:11.413Z,85.36
2023-05-22T22:25:39.462Z,85.89
2023-05-22T22:28:07.556Z,86.77
2023-05-22T22:30:35.560Z,86.88
2023-05-22T22:33:02.625Z,87.71
2023-05-22T22:35:29.795Z,88.18
2023-05-22T22:37:56.973Z,88.34
2023-05-22T22:40:25.971Z,88.86
2023-05-22T22:42:53.749Z,89.06
2023-05-22T22:45:20.582Z,90.03
2023-05-22T22:47:48.440Z,89.88
2023-05-22T22:50:15.194Z,91.00
2023-05-22T22:52:45.683Z,91.29
2023-05-22T22:55:12.655Z,91.82
2023-05-22T22:57:39.507Z,92.38
2023-05-22T23:00:06.924Z,93.13
2023-05-22T23:02:33.727Z,93.01
2023-05-22T23:05:00.656Z,93.31
2023-05-22T23:07:28.278Z,92.99
2023-05-22T23:09:54.985Z,93.35
2023-05-22T23:12:21.786Z,93.30
2023-05-22T23:14:50.617Z,93.35
2023-05-22T23:17:17.448Z,92.96
2023-05-22T23:19:44.800Z,93.00
2023-05-22T23:22:11.539Z,93.11
2023-05-22T23:24:38.316Z,92.31
2023-05-22T23:27:05.516Z,92.38
2023-05-22T23:29:32.517Z,92.61
2023-05-22T23:31:59.517Z,91.96
2023-05-22T23:34:26.448Z,92.23
2023-05-22T23:36:53.244Z,92.29
2023-05-22T23:39:20.066Z,92.47
2023-05-22T23:41:46.813Z,92.01
2023-05-22T23:44:13.565Z,92.42
2023-05-22T23:46:41.469Z,92.69
2023-05-22T23:49:08.504Z,92.84
2023-05-22T23:51:35.197Z,92.82
2023-05-22T23:54:01.902Z,93.08
2023-05-22T23:56:28.675Z,92.97
2023-05-22T23:58:56.267Z,92.39
